Time;durP1;ratioP1;P1;durP2;ratioP2;P2;SDS_P1;SDS_P2;PMS_P1;PMS_P2;Temp;Humidity;BMP_temperature;BMP_pressure;BME280_temperature;BME280_humidity;BME280_pressure;Samples;Min_cycle;Max_cycle;Signal;HPM_P1;HPM_P2
2021/03/08 00:00:18;;;;;;;1.10;0.93;;;;;;;-1.04;100.00;99482.14;3812331;75;392184;-74
2021/03/08 00:05:39;;;;;;;2.33;1.70;;;;;;;-1.10;100.00;99479.89;3819197;74;396098;-74
2021/03/08 00:11:00;;;;;;;3.90;2.33;;;;;;;-1.24;100.00;99475.95;3817166;76;396088;-75
2021/03/08 00:16:21;;;;;;;2.03;1.23;;;;;;;-1.29;100.00;99480.16;3818031;76;396121;-74
2021/03/08 00:21:42;;;;;;;4.93;3.77;;;;;;;-1.27;100.00;99476.60;3817401;76;396067;-74
2021/03/08 00:27:06;;;;;;;0.90;0.60;;;;;;;-1.33;100.00;99479.75;3820909;74;383934;-74
2021/03/08 00:32:26;;;;;;;4.80;2.83;;;;;;;-1.44;100.00;99490.56;3818409;76;389767;-74
2021/03/08 00:37:48;;;;;;;3.20;1.57;;;;;;;-1.56;100.00;99486.32;3818895;74;396064;-74
2021/03/08 00:43:09;;;;;;;1.63;1.53;;;;;;;-1.37;100.00;99484.16;3817432;76;396429;-72
2021/03/08 00:48:30;;;;;;;5.07;3.13;;;;;;;-1.42;100.00;99476.22;3817583;76;396032;-74
2021/03/08 00:53:52;;;;;;;3.30;2.13;;;;;;;-1.61;100.00;99478.91;3818567;76;387700;-73
2021/03/08 00:59:13;;;;;;;2.10;1.90;;;;;;;-1.77;100.00;99479.86;3818344;76;387781;-73
2021/03/08 01:04:34;;;;;;;2.97;1.80;;;;;;;-1.68;100.00;99478.00;3794042;75;396119;-73
2021/03/08 01:09:55;;;;;;;1.80;1.70;;;;;;;-1.87;100.00;99478.79;3805881;75;396071;-73
2021/03/08 01:15:16;;;;;;;3.03;1.97;;;;;;;-1.88;100.00;99470.45;3810220;75;396139;-74
2021/03/08 01:20:38;;;;;;;1.20;1.10;;;;;;;-1.90;100.00;99461.09;3807564;76;393943;-74
2021/03/08 01:25:59;;;;;;;3.37;2.13;;;;;;;-2.07;100.00;99450.99;3799830;76;392982;-73
2021/03/08 01:31:20;;;;;;;3.90;2.57;;;;;;;-2.10;100.00;99444.08;3805874;75;396063;-73
2021/03/08 01:36:41;;;;;;;2.43;2.00;;;;;;;-2.17;100.00;99449.89;3813508;75;391953;-73
2021/03/08 01:42:03;;;;;;;2.10;1.90;;;;;;;-2.26;100.00;99443.65;3798492;76;396102;-73
2021/03/08 01:47:24;;;;;;;1.30;1.20;;;;;;;-2.19;100.00;99443.22;3804598;76;391898;-73
2021/03/08 01:52:46;;;;;;;0.90;0.70;;;;;;;-2.40;100.00;99445.37;3807517;76;389823;-73
2021/03/08 01:58:07;;;;;;;5.50;2.57;;;;;;;-2.37;100.00;99447.72;3777354;77;394004;-73
2021/03/08 02:03:29;;;;;;;2.30;1.87;;;;;;;-2.49;100.00;99441.81;3793680;77;396084;-73
2021/03/08 02:08:50;;;;;;;5.27;1.83;;;;;;;-2.37;100.00;99444.77;3817340;76;393950;-73
2021/03/08 02:14:34;;;;;;;2.77;2.57;;;;;;;-2.38;100.00;99443.17;3818910;76;385892;-73
2021/03/08 02:20:13;;;;;;;7.43;2.60;;;;;;;-2.46;100.00;99447.38;3814631;76;457536;-72
2021/03/08 02:26:10;;;;;;;1.77;1.67;;;;;;;-2.46;100.00;99446.60;3814230;76;457599;-72
2021/03/08 02:31:33;;;;;;;1.53;1.43;;;;;;;-2.64;100.00;99433.57;3818200;76;396071;-73
2021/03/08 02:36:58;;;;;;;2.80;1.53;;;;;;;-2.64;100.00;99433.57;3819479;74;391855;-73
2021/03/08 02:42:25;;;;;;;11.13;3.23;;;;;;;-2.81;100.00;99440.69;3817943;76;394990;-73
2021/03/08 02:47:49;;;;;;;6.17;2.33;;;;;;;-2.86;100.00;99424.66;3817951;76;393969;-73
2021/03/08 02:53:13;;;;;;;5.60;2.40;;;;;;;-2.63;100.00;99430.31;3818578;74;396052;-73
2021/03/08 02:58:37;;;;;;;4.37;2.07;;;;;;;-2.63;100.00;99424.93;3817170;76;396382;-73
2021/03/08 03:04:00;;;;;;;1.00;0.90;;;;;;;-2.83;100.00;99430.80;3819128;76;390090;-73
2021/03/08 03:09:24;;;;;;;2.50;2.40;;;;;;;-2.92;100.00;99436.66;3817634;77;396162;-74
2021/03/08 03:14:48;;;;;;;7.33;4.43;;;;;;;-3.00;100.00;99438.16;3818736;76;396028;-74
2021/03/08 03:20:12;;;;;;;1.40;1.30;;;;;;;-3.03;100.00;99440.09;3818515;76;387994;-73
2021/03/08 03:25:34;;;;;;;2.20;2.00;;;;;;;-3.07;100.00;99442.38;3814079;76;456543;-73
2021/03/08 03:30:57;;;;;;;4.87;3.30;;;;;;;-3.07;100.00;99442.38;3817839;76;394994;-73
2021/03/08 03:36:20;;;;;;;1.97;1.87;;;;;;;-3.39;100.00;99437.11;3817151;76;391937;-74
2021/03/08 03:41:41;;;;;;;3.57;1.00;;;;;;;-3.39;100.00;99437.11;3817413;76;393957;-73
2021/03/08 03:47:03;;;;;;;2.43;2.23;;;;;;;-3.12;100.00;99439.24;3817824;76;396370;-73
2021/03/08 03:52:24;;;;;;;2.20;2.00;;;;;;;-3.26;100.00;99491.98;3814146;76;457602;-72
2021/03/08 03:58:15;;;;;;;1.63;1.37;;;;;;;-3.42;100.00;99467.30;3817477;76;396357;-73
2021/03/08 04:03:39;;;;;;;2.00;1.60;;;;;;;-3.46;100.00;99473.58;3816307;76;396075;-73
2021/03/08 04:09:01;;;;;;;5.33;3.13;;;;;;;-3.50;100.00;99474.73;3812061;76;390868;-73
2021/03/08 04:14:25;;;;;;;2.30;1.77;;;;;;;-3.47;100.00;99479.48;3810896;74;481769;-73
2021/03/08 04:19:48;;;;;;;1.80;1.70;;;;;;;-3.48;100.00;99490.02;3813273;77;383576;-73
2021/03/08 04:25:10;;;;;;;1.43;1.33;;;;;;;-3.31;100.00;99498.82;3812693;76;396083;-73
2021/03/08 04:30:33;;;;;;;2.57;1.67;;;;;;;-3.22;100.00;99485.70;3814498;74;396064;-73
2021/03/08 04:35:55;;;;;;;1.53;1.43;;;;;;;-3.28;100.00;99492.30;3813932;74;396071;-73
2021/03/08 04:41:17;;;;;;;2.40;1.20;;;;;;;-3.28;100.00;99492.30;3813160;76;396032;-74
2021/03/08 04:46:39;;;;;;;6.93;1.73;;;;;;;-3.44;100.00;99495.03;3813337;76;398178;-74
2021/03/08 04:52:02;;;;;;;1.10;1.00;;;;;;;-3.50;100.00;99490.05;3809910;76;480455;-73
2021/03/08 04:57:24;;;;;;;6.20;2.53;;;;;;;-3.43;100.00;99492.59;3813006;76;392947;-72
2021/03/08 05:02:45;;;;;;;1.70;1.60;;;;;;;-3.65;100.00;99495.71;3812997;76;394240;-73
2021/03/08 05:08:09;;;;;;;2.63;2.43;;;;;;;-3.65;100.00;99495.71;3819288;74;396079;-73
2021/03/08 05:13:32;;;;;;;3.17;2.20;;;;;;;-3.55;100.00;99489.59;3817913;76;396100;-73
2021/03/08 05:18:53;;;;;;;4.30;2.43;;;;;;;-3.60;100.00;99513.11;3817175;76;396114;-73
2021/03/08 05:24:16;;;;;;;1.20;1.10;;;;;;;-3.60;100.00;99513.11;3817464;76;391910;-73
2021/03/08 05:29:43;;;;;;;2.40;2.30;;;;;;;-3.60;100.00;99505.83;3814586;76;457634;-73
2021/03/08 05:35:04;;;;;;;1.60;1.50;;;;;;;-3.52;100.00;99515.11;3814903;76;457597;-74
2021/03/08 05:40:44;;;;;;;2.20;2.10;;;;;;;-3.65;100.00;99523.41;3817713;76;389876;-73
2021/03/08 05:46:08;;;;;;;1.20;0.70;;;;;;;-3.71;100.00;99529.95;3815126;76;457622;-73
2021/03/08 05:51:44;;;;;;;1.77;1.37;;;;;;;-3.71;100.00;99521.87;3818189;75;396121;-72
2021/03/08 05:57:11;;;;;;;1.50;1.40;;;;;;;-3.40;100.00;99523.47;3819371;75;456825;-73
2021/03/08 06:02:56;;;;;;;3.60;1.60;;;;;;;-3.21;100.00;99534.38;3814470;76;479421;-74
2021/03/08 06:08:40;;;;;;;1.77;1.67;;;;;;;-3.23;100.00;99545.98;3819080;74;390141;-74
2021/03/08 06:14:03;;;;;;;2.03;1.50;;;;;;;-3.03;100.00;99546.94;3819819;74;390087;-73
2021/03/08 06:19:25;;;;;;;1.27;1.10;;;;;;;-2.61;100.00;99547.94;3817275;76;389780;-73
2021/03/08 06:24:47;;;;;;;2.70;2.50;;;;;;;-2.39;100.00;99560.10;3817967;76;396081;-73
2021/03/08 06:30:10;;;;;;;5.30;4.03;;;;;;;-2.36;100.00;99547.63;3816054;76;396292;-73
2021/03/08 06:35:31;;;;;;;1.87;1.33;;;;;;;-2.26;100.00;99557.38;3818638;76;396130;-74
2021/03/08 06:40:52;;;;;;;1.97;1.27;;;;;;;-2.22;100.00;99561.85;3818930;76;383812;-74
2021/03/08 06:46:17;;;;;;;11.70;1.73;;;;;;;-1.97;100.00;99559.91;3801631;76;400211;-74
2021/03/08 06:51:56;;;;;;;1.50;1.27;;;;;;;-1.83;100.00;99564.67;3817943;76;396051;-74
2021/03/08 06:57:28;;;;;;;2.13;1.23;;;;;;;-1.66;100.00;99564.02;3816482;76;394254;-73
2021/03/08 07:02:51;;;;;;;1.87;1.67;;;;;;;-1.45;100.00;99565.86;3818908;75;383816;-74
2021/03/08 07:08:15;;;;;;;1.60;1.30;;;;;;;-1.35;100.00;99570.99;3813515;75;396067;-74
2021/03/08 07:13:36;;;;;;;7.57;3.60;;;;;;;-1.21;100.00;99569.02;3812965;77;396496;-75
2021/03/08 07:19:02;;;;;;;1.07;0.97;;;;;;;-1.12;100.00;99573.87;3813438;76;391914;-74
2021/03/08 07:24:23;;;;;;;3.63;3.53;;;;;;;-0.88;100.00;99572.40;3812608;76;396385;-74
2021/03/08 07:29:47;;;;;;;1.10;1.00;;;;;;;-0.65;100.00;99577.95;3812936;76;391910;-74
2021/03/08 07:35:09;;;;;;;7.00;2.07;;;;;;;-0.38;100.00;99590.63;3812342;76;396202;-74
2021/03/08 07:40:30;;;;;;;9.07;2.43;;;;;;;-0.12;100.00;99592.81;3778496;76;387876;-74
2021/03/08 07:45:52;;;;;;;2.67;1.23;;;;;;;0.10;100.00;99596.17;3812862;77;396371;-75
2021/03/08 07:51:13;;;;;;;2.07;1.97;;;;;;;0.30;100.00;99601.49;3812501;76;383564;-74
2021/03/08 07:56:35;;;;;;;9.03;4.37;;;;;;;0.44;100.00;99608.87;3813028;76;393973;-74
2021/03/08 08:01:57;;;;;;;8.33;3.40;;;;;;;0.63;100.00;99612.03;3801200;77;396134;-74
2021/03/08 08:07:26;;;;;;;1.73;1.53;;;;;;;0.73;100.00;99611.70;3798005;74;396316;-74
2021/03/08 08:12:45;;;;;;;3.33;2.40;;;;;;;0.88;100.00;99615.48;3798742;76;396119;-74
2021/03/08 08:18:07;;;;;;;1.93;1.73;;;;;;;1.09;100.00;99612.86;3788347;77;396130;-74
2021/03/08 08:23:32;;;;;;;1.00;0.87;;;;;;;1.25;100.00;99617.41;3814441;77;383856;-74
2021/03/08 08:28:55;;;;;;;6.03;3.13;;;;;;;1.41;100.00;99621.16;3799521;75;396120;-74
2021/03/08 08:34:37;;;;;;;1.83;1.60;;;;;;;1.35;100.00;99625.18;3774990;77;396352;-74
2021/03/08 08:40:02;;;;;;;2.90;1.97;;;;;;;1.54;100.00;99617.98;3790475;77;396319;-75
2021/03/08 08:45:32;;;;;;;2.33;2.13;;;;;;;1.63;100.00;99612.73;3807126;76;392897;-74
2021/03/08 08:50:56;;;;;;;2.10;1.70;;;;;;;1.77;100.00;99616.02;3800494;77;396138;-73
2021/03/08 08:56:17;;;;;;;2.47;1.67;;;;;;;1.88;100.00;99622.64;3787656;75;396085;-74
2021/03/08 09:01:41;;;;;;;4.03;3.03;;;;;;;1.99;100.00;99623.27;3794273;76;396083;-74
2021/03/08 09:07:03;;;;;;;2.40;1.90;;;;;;;2.14;100.00;99627.33;3815483;76;392151;-73
2021/03/08 09:12:30;;;;;;;4.50;2.87;;;;;;;2.32;100.00;99627.42;3813257;77;396136;-74
2021/03/08 09:17:56;;;;;;;5.43;2.60;;;;;;;2.47;100.00;99628.41;3814502;76;396144;-74
2021/03/08 09:23:24;;;;;;;3.80;2.50;;;;;;;2.63;100.00;99628.56;3814853;75;391957;-74
2021/03/08 09:28:50;;;;;;;3.77;1.93;;;;;;;2.73;100.00;99629.52;3813218;76;395041;-74
2021/03/08 09:34:11;;;;;;;4.80;3.07;;;;;;;2.65;100.00;99631.75;3813532;75;396141;-74
2021/03/08 09:39:33;;;;;;;4.20;2.00;;;;;;;2.82;100.00;99626.95;3813308;76;396387;-74
2021/03/08 09:44:53;;;;;;;4.97;2.67;;;;;;;2.74;99.07;99627.03;3813175;75;396103;-75
2021/03/08 09:50:18;;;;;;;2.97;1.30;;;;;;;2.64;99.04;99636.40;3813625;76;394020;-74
2021/03/08 09:55:39;;;;;;;3.33;3.03;;;;;;;2.13;100.00;99631.16;3814400;76;396133;-74
2021/03/08 10:01:00;;;;;;;2.10;1.90;;;;;;;2.03;100.00;99638.33;3813914;77;396090;-74
2021/03/08 10:06:33;;;;;;;2.23;2.03;;;;;;;1.95;100.00;99635.92;3814867;75;396036;-74
2021/03/08 10:12:01;;;;;;;3.87;3.53;;;;;;;2.00;100.00;99630.30;3814766;76;396364;-74
2021/03/08 10:17:23;;;;;;;1.90;1.60;;;;;;;2.08;100.00;99640.86;3814151;76;396149;-74
2021/03/08 10:22:44;;;;;;;4.50;2.93;;;;;;;2.49;100.00;99632.13;3814790;76;396090;-74
2021/03/08 10:28:05;;;;;;;4.47;1.60;;;;;;;2.87;100.00;99630.81;3814134;75;396078;-74
2021/03/08 10:33:27;;;;;;;1.23;1.13;;;;;;;3.18;97.37;99624.30;3814955;75;393945;-74
2021/03/08 10:38:56;;;;;;;4.60;1.23;;;;;;;3.46;94.96;99627.39;3814506;76;394218;-74
2021/03/08 10:44:21;;;;;;;3.20;1.50;;;;;;;3.58;90.00;99632.04;3813319;76;392995;-75
2021/03/08 10:49:53;;;;;;;2.60;1.60;;;;;;;3.32;92.87;99631.02;3814856;75;391877;-73
2021/03/08 10:55:31;;;;;;;2.80;2.60;;;;;;;3.51;92.93;99625.83;3813460;75;396079;-74
2021/03/08 11:00:55;;;;;;;5.10;2.80;;;;;;;4.04;92.25;99626.32;3814376;75;391887;-74
2021/03/08 11:06:18;;;;;;;4.53;1.63;;;;;;;4.31;85.66;99624.23;3813423;75;394998;-74
2021/03/08 11:11:42;;;;;;;3.37;2.50;;;;;;;4.20;88.40;99621.75;3814285;76;396284;-74
2021/03/08 11:17:03;;;;;;;1.67;1.57;;;;;;;4.57;87.16;99631.41;3814974;75;387701;-74
2021/03/08 11:22:24;;;;;;;8.10;3.40;;;;;;;4.86;84.70;99629.67;3814586;76;396073;-74
2021/03/08 11:27:48;;;;;;;1.70;1.60;;;;;;;5.04;82.29;99632.31;3813422;75;393180;-74
2021/03/08 11:33:11;;;;;;;2.30;2.07;;;;;;;5.29;79.89;99635.11;3814464;76;396371;-74
2021/03/08 11:38:32;;;;;;;1.63;1.53;;;;;;;5.36;78.03;99640.75;3813502;75;391922;-74
2021/03/08 11:43:54;;;;;;;6.80;3.83;;;;;;;5.32;78.06;99635.20;3813749;76;396087;-75
2021/03/08 11:49:15;;;;;;;2.03;1.70;;;;;;;5.65;77.43;99632.33;3814629;75;392911;-75
2021/03/08 11:54:37;;;;;;;5.50;1.80;;;;;;;5.65;74.14;99624.73;3814259;75;394250;-72
2021/03/08 11:59:59;;;;;;;4.10;3.03;;;;;;;5.72;79.93;99627.06;3813026;76;396177;-73
2021/03/08 12:05:21;;;;;;;6.03;2.63;;;;;;;5.88;79.64;99612.03;3813152;75;397053;-74
2021/03/08 12:10:42;;;;;;;1.60;1.50;;;;;;;6.13;78.36;99597.80;3813572;75;396314;-74
2021/03/08 12:16:03;;;;;;;4.37;4.00;;;;;;;6.19;68.35;99591.46;3800625;76;397324;-74
2021/03/08 12:21:24;;;;;;;5.60;3.20;;;;;;;6.46;65.90;99581.72;3803499;76;397301;-74
2021/03/08 12:26:46;;;;;;;6.07;3.83;;;;;;;6.60;65.01;99584.73;3790473;76;397357;-74
2021/03/08 12:32:08;;;;;;;13.93;4.70;;;;;;;6.50;65.49;99577.88;3804598;76;392158;-74
2021/03/08 12:37:31;;;;;;;2.40;2.20;;;;;;;6.60;64.37;99580.63;3800126;75;397076;-76
2021/03/08 12:42:52;;;;;;;3.90;2.67;;;;;;;6.54;64.52;99570.55;3788525;75;397332;-75
2021/03/08 12:48:14;;;;;;;8.50;3.47;;;;;;;6.45;64.02;99569.20;3795989;76;397318;-75
2021/03/08 12:53:35;;;;;;;4.43;3.37;;;;;;;6.46;65.12;99574.89;3802819;76;397068;-73
2021/03/08 12:58:56;;;;;;;3.87;3.27;;;;;;;6.55;64.90;99574.87;3801216;75;396361;-75
2021/03/08 13:04:17;;;;;;;6.00;2.17;;;;;;;6.77;64.75;99575.48;3813647;76;396154;-75
2021/03/08 13:09:39;;;;;;;3.83;2.03;;;;;;;6.87;62.83;99563.16;3808108;76;397123;-75
2021/03/08 13:15:00;;;;;;;3.87;2.10;;;;;;;6.94;63.22;99570.92;3817497;77;395264;-74
2021/03/08 13:20:21;;;;;;;3.57;3.07;;;;;;;7.26;63.07;99558.59;3817334;76;397260;-75
2021/03/08 13:25:43;;;;;;;2.60;2.00;;;;;;;7.47;61.83;99562.47;3817313;76;397039;-74
2021/03/08 13:31:04;;;;;;;2.13;2.03;;;;;;;7.62;60.53;99563.48;3817360;76;394028;-75
2021/03/08 13:36:26;;;;;;;2.40;2.20;;;;;;;7.78;57.45;99558.05;3817227;76;394944;-74
2021/03/08 13:41:47;;;;;;;1.97;1.37;;;;;;;7.69;59.57;99552.64;3817604;76;395957;-74
2021/03/08 13:47:09;;;;;;;3.03;1.90;;;;;;;7.89;59.31;99553.52;3817392;76;394315;-74
2021/03/08 13:52:32;;;;;;;5.00;3.60;;;;;;;8.07;58.17;99552.60;3817291;76;397036;-74
2021/03/08 13:57:52;;;;;;;2.40;2.20;;;;;;;8.08;57.95;99550.64;3817639;77;388732;-75
2021/03/08 14:03:14;;;;;;;6.60;2.00;;;;;;;8.30;56.46;99558.02;3817137;76;398059;-75
2021/03/08 14:08:35;;;;;;;5.83;3.83;;;;;;;8.22;56.42;99544.02;3818411;74;397045;-75
2021/03/08 14:13:56;;;;;;;8.87;3.07;;;;;;;8.21;59.09;99546.55;3816981;76;397302;-74
2021/03/08 14:19:17;;;;;;;12.67;3.57;;;;;;;8.42;56.75;99549.55;3817638;76;394969;-75
2021/03/08 14:24:38;;;;;;;3.60;1.80;;;;;;;8.41;56.41;99547.96;3808800;76;397089;-75
2021/03/08 14:30:00;;;;;;;24.23;2.90;;;;;;;8.42;54.85;99543.50;3815897;76;397348;-75
2021/03/08 14:35:21;;;;;;;2.03;1.83;;;;;;;7.84;56.32;99543.46;3817136;76;397061;-75
2021/03/08 14:40:43;;;;;;;4.77;2.17;;;;;;;8.07;58.37;99541.64;3817413;76;397118;-74
2021/03/08 14:46:05;;;;;;;9.43;3.87;;;;;;;8.32;57.05;99536.52;3817736;77;395010;-75
2021/03/08 14:51:26;;;;;;;2.30;1.43;;;;;;;8.24;54.63;99534.83;3816411;76;396263;-75
2021/03/08 14:56:48;;;;;;;3.17;2.07;;;;;;;7.96;55.58;99534.45;3817285;76;397045;-75
2021/03/08 15:02:09;;;;;;;3.80;1.93;;;;;;;8.08;54.31;99530.09;3816435;76;396040;-75
2021/03/08 15:07:30;;;;;;;3.43;1.90;;;;;;;8.41;55.16;99523.29;3817689;76;388703;-75
2021/03/08 15:12:52;;;;;;;3.57;1.90;;;;;;;8.33;53.28;99518.89;3817204;76;397294;-74
2021/03/08 15:18:13;;;;;;;5.57;3.67;;;;;;;8.22;54.41;99518.77;3811371;76;398043;-75
2021/03/08 15:23:34;;;;;;;5.00;3.00;;;;;;;8.20;56.34;99518.34;3817241;76;397355;-74
2021/03/08 15:28:55;;;;;;;1.93;1.83;;;;;;;7.78;56.52;99519.71;3819060;74;392905;-75
2021/03/08 15:34:16;;;;;;;5.73;4.80;;;;;;;7.76;57.46;99514.39;3817154;76;397089;-75
2021/03/08 15:39:38;;;;;;;2.40;1.87;;;;;;;7.27;58.14;99511.70;3817449;76;394979;-75
2021/03/08 15:44:59;;;;;;;5.60;2.47;;;;;;;7.07;59.68;99514.09;3817032;77;396058;-74
2021/03/08 15:50:20;;;;;;;6.13;2.70;;;;;;;7.64;58.92;99515.97;3817357;76;395026;-76
2021/03/08 15:55:41;;;;;;;2.90;1.80;;;;;;;7.72;58.15;99509.44;3819111;74;396292;-75
2021/03/08 16:01:03;;;;;;;3.07;2.03;;;;;;;7.80;58.62;99502.90;3817350;76;396023;-74
2021/03/08 16:06:24;;;;;;;4.40;1.53;;;;;;;8.15;57.62;99504.20;3817562;76;396310;-75
2021/03/08 16:11:45;;;;;;;3.27;1.83;;;;;;;7.83;57.23;99505.71;3814240;76;392951;-75
2021/03/08 16:17:07;;;;;;;5.43;2.10;;;;;;;7.82;58.42;99511.54;3812511;76;397097;-75
2021/03/08 16:22:28;;;;;;;2.20;1.70;;;;;;;9.04;55.38;99514.58;3812617;76;397065;-74
2021/03/08 16:27:49;;;;;;;9.80;2.30;;;;;;;10.43;51.75;99519.59;3813122;76;395220;-74
2021/03/08 16:33:11;;;;;;;3.00;1.80;;;;;;;10.01;50.07;99517.25;3813839;74;397036;-75
2021/03/08 16:38:32;;;;;;;4.37;3.07;;;;;;;9.06;53.78;99524.57;3812505;76;397001;-75
2021/03/08 16:43:54;;;;;;;5.67;2.80;;;;;;;8.19;56.22;99515.98;3812239;76;397147;-75
2021/03/08 16:49:15;;;;;;;6.00;2.60;;;;;;;7.64;58.84;99520.88;3812390;76;397080;-75
2021/03/08 16:54:36;;;;;;;3.30;3.00;;;;;;;6.85;62.68;99517.04;3812543;76;397001;-75
2021/03/08 16:59:57;;;;;;;2.60;1.77;;;;;;;6.48;63.10;99508.34;3812411;76;396304;-74
2021/03/08 17:05:23;;;;;;;4.33;2.10;;;;;;;6.29;64.00;99510.30;3812524;76;397000;-75
2021/03/08 17:10:42;;;;;;;3.53;2.80;;;;;;;6.24;65.71;99505.92;3813244;76;392874;-74
2021/03/08 17:16:03;;;;;;;4.60;1.90;;;;;;;5.74;67.98;99510.10;3817435;76;386946;-75
2021/03/08 17:21:24;;;;;;;2.70;1.27;;;;;;;5.44;69.22;99522.46;3817525;77;396040;-74
2021/03/08 17:26:45;;;;;;;3.37;3.00;;;;;;;5.28;71.13;99523.05;3817244;76;397052;-75
2021/03/08 17:32:07;;;;;;;2.33;2.13;;;;;;;4.93;72.31;99529.80;3817374;76;396143;-74
2021/03/08 17:37:28;;;;;;;2.53;2.33;;;;;;;4.68;70.72;99518.06;3817061;76;396116;-75
2021/03/08 17:42:50;;;;;;;2.47;2.17;;;;;;;4.47;73.39;99525.66;3817577;76;394301;-75
2021/03/08 17:48:11;;;;;;;2.93;1.70;;;;;;;4.11;75.24;99538.63;3817495;76;394000;-75
2021/03/08 17:53:32;;;;;;;5.17;1.87;;;;;;;3.87;77.64;99538.71;3817498;76;395243;-75
2021/03/08 17:58:53;;;;;;;21.93;2.83;;;;;;;3.62;78.86;99536.39;3818835;74;396036;-75
2021/03/08 18:04:15;;;;;;;1.20;1.10;;;;;;;3.33;80.52;99542.06;3817790;76;396071;-74
2021/03/08 18:09:36;;;;;;;1.50;1.40;;;;;;;3.03;83.16;99545.38;3817398;76;396072;-75
2021/03/08 18:14:57;;;;;;;7.60;2.27;;;;;;;2.78;83.87;99545.89;3817542;76;396098;-75
2021/03/08 18:20:20;;;;;;;3.97;2.40;;;;;;;2.56;84.56;99551.73;3818855;74;396064;-75
2021/03/08 18:25:40;;;;;;;2.80;2.60;;;;;;;2.35;87.04;99546.12;3817042;76;396386;-74
2021/03/08 18:31:02;;;;;;;1.20;0.90;;;;;;;2.18;86.79;99540.84;3818774;77;383800;-75
2021/03/08 18:36:23;;;;;;;2.63;1.50;;;;;;;2.07;85.85;99541.02;3817268;77;396323;-75
2021/03/08 18:41:45;;;;;;;5.87;2.13;;;;;;;1.99;89.86;99542.45;3817774;77;389872;-76
2021/03/08 18:47:06;;;;;;;1.40;1.30;;;;;;;1.98;93.74;99544.94;3818195;76;386024;-75
2021/03/08 18:52:27;;;;;;;8.37;1.30;;;;;;;1.65;95.23;99541.36;3800330;76;383824;-74
2021/03/08 18:57:48;;;;;;;4.00;0.93;;;;;;;1.49;93.03;99547.12;3819460;74;390052;-74
2021/03/08 19:03:10;;;;;;;8.90;2.27;;;;;;;1.36;90.67;99550.89;3819543;74;393214;-75
2021/03/08 19:08:31;;;;;;;3.20;2.47;;;;;;;1.23;93.33;99541.63;3817165;76;396098;-74
2021/03/08 19:13:53;;;;;;;11.23;3.23;;;;;;;1.28;100.00;99544.95;3808053;76;398154;-74
2021/03/08 19:19:15;;;;;;;6.33;3.83;;;;;;;1.21;100.00;99543.87;3799403;76;396091;-74
2021/03/08 19:24:36;;;;;;;3.07;2.13;;;;;;;1.09;100.00;99545.92;3813797;75;392927;-74
2021/03/08 19:29:57;;;;;;;1.60;1.30;;;;;;;0.78;100.00;99547.31;3803216;76;395031;-73
2021/03/08 19:35:19;;;;;;;7.50;1.53;;;;;;;0.57;100.00;99534.80;3785707;77;393993;-73
2021/03/08 19:40:40;;;;;;;6.63;3.23;;;;;;;0.51;100.00;99546.92;3807820;76;394048;-74
2021/03/08 19:46:01;;;;;;;3.73;2.90;;;;;;;0.43;100.00;99539.62;3814252;76;395050;-74
2021/03/08 19:51:23;;;;;;;1.50;1.40;;;;;;;0.56;100.00;99538.08;3807157;75;391863;-74
2021/03/08 19:56:44;;;;;;;3.67;2.33;;;;;;;0.38;100.00;99548.70;3800161;76;396099;-74
2021/03/08 20:02:06;;;;;;;23.90;3.43;;;;;;;0.10;100.00;99546.14;3827792;75;396305;-73
2021/03/08 20:07:27;;;;;;;2.60;1.80;;;;;;;-0.04;100.00;99534.45;3799443;76;396083;-74
2021/03/08 20:12:48;;;;;;;5.80;3.83;;;;;;;-0.09;100.00;99540.82;3810475;77;396089;-73
2021/03/08 20:18:09;;;;;;;2.93;2.67;;;;;;;-0.17;100.00;99535.39;3804748;76;396150;-74
2021/03/08 20:23:31;;;;;;;5.73;1.77;;;;;;;0.17;100.00;99533.45;3804388;76;396064;-74
2021/03/08 20:28:53;;;;;;;4.10;2.60;;;;;;;0.22;100.00;99529.25;3802258;75;396077;-73
2021/03/08 20:34:16;;;;;;;6.50;3.40;;;;;;;-0.13;100.00;99527.69;3802470;76;396037;-74
2021/03/08 20:39:37;;;;;;;1.70;1.60;;;;;;;-0.36;100.00;99515.98;3804375;75;396079;-73
2021/03/08 20:44:59;;;;;;;4.43;1.93;;;;;;;-0.48;100.00;99509.86;3803544;75;396353;-74
2021/03/08 20:50:21;;;;;;;5.33;4.77;;;;;;;-0.56;100.00;99519.32;3803457;76;396130;-75
2021/03/08 20:55:42;;;;;;;5.97;4.30;;;;;;;-0.58;100.00;99515.59;3804098;76;396358;-73
2021/03/08 21:01:04;;;;;;;3.23;2.93;;;;;;;-0.74;100.00;99515.81;3803743;77;395037;-73
2021/03/08 21:06:25;;;;;;;5.20;3.30;;;;;;;-0.75;100.00;99518.80;3801157;76;396364;-74
2021/03/08 21:11:47;;;;;;;5.20;2.97;;;;;;;-0.76;100.00;99520.73;3804547;76;396167;-73
2021/03/08 21:17:08;;;;;;;3.90;1.53;;;;;;;-0.92;100.00;99526.08;3812259;76;394100;-73
2021/03/08 21:22:29;;;;;;;2.60;1.70;;;;;;;-1.06;100.00;99529.46;3813267;76;395057;-74
2021/03/08 21:27:52;;;;;;;3.20;2.57;;;;;;;-0.96;100.00;99525.91;3812408;76;396357;-74
2021/03/08 21:33:14;;;;;;;1.77;1.67;;;;;;;-0.84;100.00;99515.86;3813070;76;396079;-74
2021/03/08 21:38:35;;;;;;;2.83;2.63;;;;;;;-0.83;100.00;99525.55;3813070;76;395037;-74
2021/03/08 21:43:56;;;;;;;2.03;1.93;;;;;;;-1.17;100.00;99532.97;3812815;76;391914;-74
2021/03/08 21:49:18;;;;;;;3.00;2.80;;;;;;;-1.31;100.00;99519.36;3812435;76;396146;-73
2021/03/08 21:54:39;;;;;;;2.53;2.43;;;;;;;-1.07;100.00;99521.12;3811985;75;396306;-73
2021/03/08 22:00:00;;;;;;;1.20;1.10;;;;;;;-1.16;100.00;99522.42;3813354;76;396340;-73
2021/03/08 22:05:21;;;;;;;3.57;2.67;;;;;;;-1.36;100.00;99516.78;3814334;74;396098;-73
2021/03/08 22:10:42;;;;;;;4.57;2.73;;;;;;;-1.61;100.00;99517.45;3812804;76;396127;-73
2021/03/08 22:16:05;;;;;;;2.40;2.30;;;;;;;-1.73;100.00;99511.85;3817883;74;396064;-74
2021/03/08 22:21:26;;;;;;;1.50;0.93;;;;;;;-1.81;100.00;99511.25;3818034;76;392950;-74
2021/03/08 22:26:48;;;;;;;3.73;2.20;;;;;;;-1.81;100.00;99511.25;3819280;74;396162;-74
2021/03/08 22:32:09;;;;;;;7.33;3.10;;;;;;;-1.76;100.00;99514.38;3817612;76;396076;-73
2021/03/08 22:37:31;;;;;;;14.57;3.80;;;;;;;-1.77;100.00;99511.43;3817427;76;396130;-74
2021/03/08 22:42:52;;;;;;;4.43;2.83;;;;;;;-1.98;100.00;99505.75;3818016;76;389776;-74
2021/03/08 22:48:14;;;;;;;4.73;2.10;;;;;;;-2.10;100.00;99505.50;3818011;76;392962;-74
2021/03/08 22:53:35;;;;;;;6.30;3.13;;;;;;;-2.09;100.00;99499.57;3818115;76;396079;-74
2021/03/08 22:58:56;;;;;;;3.67;2.33;;;;;;;-2.17;100.00;99493.00;3817818;76;396304;-75
2021/03/08 23:04:17;;;;;;;12.03;3.17;;;;;;;-2.07;100.00;99493.33;3818708;74;400239;-74
2021/03/08 23:09:38;;;;;;;4.73;2.53;;;;;;;-2.04;100.00;99488.66;3817664;76;391855;-74
2021/03/08 23:14:59;;;;;;;2.30;2.20;;;;;;;-2.03;100.00;99490.25;3808068;76;396382;-74
2021/03/08 23:20:24;;;;;;;2.30;2.20;;;;;;;-2.12;100.00;99481.31;3777950;76;392987;-74
2021/03/08 23:25:47;;;;;;;5.13;3.83;;;;;;;-2.21;100.00;99473.72;3776899;76;396083;-74
2021/03/08 23:31:08;;;;;;;2.43;2.10;;;;;;;-2.31;100.00;99476.67;3786802;77;396180;-74
2021/03/08 23:36:30;;;;;;;6.73;3.03;;;;;;;-2.35;100.00;99474.34;3806946;76;396339;-74
2021/03/08 23:41:52;;;;;;;4.07;3.00;;;;;;;-2.43;100.00;99460.81;3801248;76;394025;-74
2021/03/08 23:47:14;;;;;;;4.03;1.93;;;;;;;-2.49;100.00;99462.02;3799076;76;396354;-74
2021/03/08 23:52:35;;;;;;;2.50;2.30;;;;;;;-2.59;100.00;99467.66;3806470;76;396426;-74
2021/03/08 23:57:56;;;;;;;23.90;3.37;;;;;;;-2.68;100.00;99477.00;3804386;76;398167;-74
